Time;durP1;ratioP1;P1;durP2;ratioP2;P2;SDS_P1;SDS_P2;PMS_P1;PMS_P2;Temp;Humidity;BMP_temperature;BMP_pressure;BME280_temperature;BME280_humidity;BME280_pressure;Samples;Min_cycle;Max_cycle;Signal;HPM_P1;HPM_P2
2021/03/08 00:00:46;;;;;;;39.97;26.02;;;4.20;62.40;;;;;;5060810;28;20153;-73
2021/03/08 00:03:13;;;;;;;40.90;26.85;;;4.20;62.50;;;;;;5056614;28;20039;-73
2021/03/08 00:05:39;;;;;;;42.28;26.60;;;4.20;61.20;;;;;;5061782;28;20040;-72
2021/03/08 00:08:05;;;;;;;40.88;26.13;;;4.20;61.20;;;;;;5055137;28;20028;-73
2021/03/08 00:10:31;;;;;;;37.80;24.80;;;4.20;61.40;;;;;;5050288;28;20116;-73
2021/03/08 00:12:57;;;;;;;41.83;28.08;;;4.20;61.40;;;;;;5065501;28;20101;-72
2021/03/08 00:15:23;;;;;;;40.45;26.08;;;4.20;61.20;;;;;;5062823;28;20456;-75
2021/03/08 00:17:49;;;;;;;37.83;25.73;;;4.10;61.30;;;;;;5067152;28;20028;-72
2021/03/08 00:20:18;;;;;;;38.85;25.45;;;4.20;61.30;;;;;;5066735;28;20037;-75
2021/03/08 00:22:44;;;;;;;36.85;24.08;;;4.20;61.50;;;;;;5057452;28;20029;-81
2021/03/08 00:25:18;;;;;;;35.22;24.50;;;4.20;61.20;;;;;;5070193;28;20075;-73
2021/03/08 00:27:44;;;;;;;36.65;24.33;;;4.20;61.60;;;;;;5063671;28;20039;-73
2021/03/08 00:30:12;;;;;;;40.92;24.85;;;4.20;61.80;;;;;;5063292;28;20037;-72
2021/03/08 00:32:37;;;;;;;34.95;23.55;;;4.10;62.00;;;;;;5069774;28;20120;-76
2021/03/08 00:35:05;;;;;;;36.40;25.23;;;4.10;61.30;;;;;;5061325;28;20127;-72
2021/03/08 00:37:31;;;;;;;34.47;24.52;;;4.10;61.60;;;;;;5063289;28;20048;-72
2021/03/08 00:39:58;;;;;;;38.78;24.42;;;4.00;61.90;;;;;;5065793;28;20032;-72
2021/03/08 00:42:24;;;;;;;40.53;25.48;;;3.90;62.20;;;;;;5064575;28;20032;-72
2021/03/08 00:44:50;;;;;;;41.95;26.23;;;3.90;62.60;;;;;;5070479;28;20127;-73
2021/03/08 00:47:16;;;;;;;43.15;28.23;;;3.80;62.80;;;;;;5061795;28;20440;-72
2021/03/08 00:49:42;;;;;;;38.53;25.90;;;3.70;63.00;;;;;;5062484;28;20511;-72
2021/03/08 00:52:07;;;;;;;39.20;25.38;;;3.60;63.20;;;;;;5061532;28;20032;-73
2021/03/08 00:54:33;;;;;;;39.53;25.27;;;3.50;63.30;;;;;;5067729;28;20040;-74
2021/03/08 00:56:58;;;;;;;37.60;26.00;;;3.50;63.60;;;;;;5065846;28;20056;-72
2021/03/08 00:59:24;;;;;;;34.55;24.50;;;3.40;64.10;;;;;;5064969;28;20025;-72
2021/03/08 01:01:50;;;;;;;35.75;24.63;;;3.30;64.30;;;;;;5053873;28;20047;-73
2021/03/08 01:04:15;;;;;;;41.13;25.60;;;3.30;64.30;;;;;;5070059;28;20115;-73
2021/03/08 01:06:41;;;;;;;37.80;24.65;;;3.20;64.50;;;;;;5065566;28;20037;-73
2021/03/08 01:09:07;;;;;;;37.38;24.20;;;3.10;64.80;;;;;;5066520;28;20422;-74
2021/03/08 01:11:34;;;;;;;36.20;23.98;;;3.10;65.30;;;;;;5069344;28;20459;-72
2021/03/08 01:14:00;;;;;;;35.53;23.67;;;3.00;65.90;;;;;;5060406;28;20476;-73
2021/03/08 01:16:26;;;;;;;35.80;24.27;;;2.90;66.20;;;;;;5063845;28;20044;-73
2021/03/08 01:18:51;;;;;;;36.20;23.90;;;2.90;66.40;;;;;;5066885;28;20040;-76
2021/03/08 01:21:17;;;;;;;39.17;24.98;;;2.80;66.70;;;;;;5064300;28;20091;-74
2021/03/08 01:23:43;;;;;;;36.88;25.15;;;2.70;66.90;;;;;;5058106;28;20486;-75
2021/03/08 01:26:08;;;;;;;38.13;25.02;;;2.70;67.00;;;;;;5064107;28;20055;-74
2021/03/08 01:28:34;;;;;;;39.85;24.70;;;2.60;67.30;;;;;;5076090;28;20035;-72
2021/03/08 01:31:00;;;;;;;38.33;26.20;;;2.60;67.20;;;;;;5070949;28;20471;-73
2021/03/08 01:33:25;;;;;;;39.13;24.98;;;2.60;67.50;;;;;;5069662;28;20032;-77
2021/03/08 01:35:51;;;;;;;41.75;25.17;;;2.50;67.70;;;;;;5065925;28;20115;-73
2021/03/08 01:38:16;;;;;;;35.17;24.77;;;2.40;67.60;;;;;;5047567;28;20120;-73
2021/03/08 01:40:43;;;;;;;38.10;24.45;;;2.40;67.50;;;;;;5063188;28;20036;-73
2021/03/08 01:43:10;;;;;;;35.88;23.83;;;2.30;67.70;;;;;;5057295;28;20041;-71
2021/03/08 01:45:36;;;;;;;36.85;24.27;;;2.20;68.10;;;;;;5055756;28;20052;-72
2021/03/08 01:48:03;;;;;;;37.60;24.20;;;2.20;68.30;;;;;;5066927;28;20121;-73
2021/03/08 01:50:31;;;;;;;39.42;25.58;;;2.10;68.40;;;;;;5061921;28;20033;-73
2021/03/08 01:52:58;;;;;;;39.60;25.73;;;2.10;68.60;;;;;;5070722;28;20082;-73
2021/03/08 01:55:25;;;;;;;37.05;25.00;;;2.10;68.70;;;;;;5062004;28;20033;-72
2021/03/08 01:57:51;;;;;;;37.55;25.70;;;2.10;68.70;;;;;;5067157;28;20048;-73
2021/03/08 02:00:17;;;;;;;41.50;26.13;;;2.00;69.00;;;;;;5064183;28;20387;-73
2021/03/08 02:02:43;;;;;;;38.42;25.55;;;1.90;69.20;;;;;;5054845;28;20086;-72
2021/03/08 02:05:14;;;;;;;36.92;24.77;;;1.90;69.50;;;;;;5057231;28;20036;-72
2021/03/08 02:07:40;;;;;;;41.47;27.08;;;1.80;70.00;;;;;;5055047;28;20066;-72
2021/03/08 02:10:09;;;;;;;43.03;27.30;;;1.80;70.50;;;;;;5047572;28;20041;-74
2021/03/08 02:12:46;;;;;;;43.53;28.02;;;1.70;70.80;;;;;;5061001;28;20028;-72
2021/03/08 02:15:31;;;;;;;41.75;26.70;;;1.70;71.10;;;;;;5063185;28;20055;-73
2021/03/08 02:17:59;;;;;;;43.92;27.30;;;1.60;71.30;;;;;;5054769;28;20057;-72
2021/03/08 02:21:03;;;;;;;39.65;27.00;;;1.60;71.40;;;;;;5067885;28;20032;-72
2021/03/08 02:23:55;;;;;;;43.72;28.38;;;1.60;71.80;;;;;;5040786;28;20037;-72
2021/03/08 02:26:31;;;;;;;41.10;27.52;;;1.60;72.10;;;;;;5039302;28;20049;-73
2021/03/08 02:29:16;;;;;;;39.33;28.38;;;1.60;72.40;;;;;;5046747;28;20462;-74
2021/03/08 02:31:42;;;;;;;41.70;27.92;;;1.60;72.90;;;;;;5036298;28;20435;-73
2021/03/08 02:34:18;;;;;;;47.28;33.05;;;1.50;73.20;;;;;;5040810;28;20025;-73
2021/03/08 02:36:47;;;;;;;47.70;31.98;;;1.50;73.40;;;;;;5045764;28;20037;-73
2021/03/08 02:39:22;;;;;;;46.50;30.73;;;1.40;73.50;;;;;;5041339;28;20036;-73
2021/03/08 02:41:51;;;;;;;45.10;29.83;;;1.40;73.80;;;;;;5041231;28;20048;-76
2021/03/08 02:44:19;;;;;;;45.78;28.63;;;1.30;73.90;;;;;;5040890;28;20380;-75
2021/03/08 02:46:47;;;;;;;45.10;28.88;;;1.30;74.30;;;;;;5039834;28;20061;-74
2021/03/08 02:49:17;;;;;;;45.67;28.27;;;1.30;74.40;;;;;;5048534;28;20029;-73
2021/03/08 02:52:11;;;;;;;44.70;28.15;;;1.30;74.50;;;;;;5046509;28;20487;-72
2021/03/08 02:54:48;;;;;;;44.05;28.00;;;1.20;74.40;;;;;;5042444;28;20048;-73
2021/03/08 02:57:17;;;;;;;47.35;29.65;;;1.20;74.60;;;;;;5044960;28;20115;-74
2021/03/08 02:59:47;;;;;;;49.65;29.48;;;1.20;74.90;;;;;;5048315;28;20029;-72
2021/03/08 03:02:13;;;;;;;44.83;28.10;;;1.20;75.00;;;;;;5040043;28;20047;-72
2021/03/08 03:04:40;;;;;;;45.67;28.88;;;1.20;75.00;;;;;;5043195;28;20112;-72
2021/03/08 03:07:09;;;;;;;49.33;29.38;;;1.20;75.10;;;;;;5040593;28;20392;-73
2021/03/08 03:09:36;;;;;;;46.97;28.58;;;1.20;75.30;;;;;;5028732;28;20044;-72
2021/03/08 03:12:03;;;;;;;49.75;29.08;;;1.20;75.40;;;;;;5030797;28;20534;-73
2021/03/08 03:14:29;;;;;;;45.50;29.15;;;1.10;75.50;;;;;;5030053;28;20032;-72
2021/03/08 03:17:01;;;;;;;47.30;28.90;;;1.20;75.60;;;;;;5036624;28;20076;-73
2021/03/08 03:19:29;;;;;;;51.42;29.83;;;1.20;75.70;;;;;;5058839;28;20023;-73
2021/03/08 03:21:59;;;;;;;46.55;28.65;;;1.10;75.80;;;;;;5066578;28;20027;-73
2021/03/08 03:24:26;;;;;;;50.90;30.17;;;1.20;76.00;;;;;;5065110;28;20028;-73
2021/03/08 03:26:52;;;;;;;45.67;29.17;;;1.20;76.00;;;;;;5063480;28;20428;-73
2021/03/08 03:29:19;;;;;;;45.58;27.23;;;1.20;76.00;;;;;;5060810;28;20060;-72
2021/03/08 03:31:46;;;;;;;51.67;29.48;;;1.10;76.10;;;;;;5065642;28;20040;-73
2021/03/08 03:34:13;;;;;;;47.88;28.73;;;1.10;76.10;;;;;;5061176;28;20051;-72
2021/03/08 03:36:40;;;;;;;46.95;27.92;;;1.10;76.20;;;;;;5064349;28;20186;-72
2021/03/08 03:39:09;;;;;;;50.30;30.40;;;1.10;76.40;;;;;;5056095;28;20068;-74
2021/03/08 03:41:34;;;;;;;48.53;29.45;;;1.10;76.60;;;;;;5067068;28;20075;-77
2021/03/08 03:44:01;;;;;;;48.15;28.63;;;1.20;76.80;;;;;;5057896;28;20029;-72
2021/03/08 03:46:27;;;;;;;48.53;28.75;;;1.20;76.80;;;;;;5055900;28;20036;-73
2021/03/08 03:48:53;;;;;;;47.20;27.85;;;1.20;77.00;;;;;;5062250;28;20041;-72
2021/03/08 03:51:20;;;;;;;51.35;29.88;;;1.30;77.10;;;;;;5060279;28;20041;-72
2021/03/08 03:53:46;;;;;;;48.22;29.00;;;1.30;77.20;;;;;;5078276;28;20047;-72
2021/03/08 03:56:15;;;;;;;47.53;27.58;;;1.40;77.30;;;;;;5058822;28;20056;-72
2021/03/08 03:58:52;;;;;;;46.22;27.98;;;1.40;77.40;;;;;;5048703;28;21377;-73
2021/03/08 04:01:32;;;;;;;51.35;28.40;;;1.40;77.50;;;;;;5056149;28;20036;-76
2021/03/08 04:04:08;;;;;;;47.60;27.67;;;1.40;77.60;;;;;;5060584;28;20021;-73
2021/03/08 04:06:41;;;;;;;46.53;28.25;;;1.50;77.70;;;;;;5062542;28;20029;-72
2021/03/08 04:09:09;;;;;;;50.85;26.70;;;1.40;77.70;;;;;;5054088;28;20033;-77
2021/03/08 04:11:38;;;;;;;49.33;27.23;;;1.50;77.80;;;;;;5056055;28;20426;-76
2021/03/08 04:14:05;;;;;;;46.38;26.70;;;1.50;77.70;;;;;;5057802;28;20068;-73
2021/03/08 04:16:31;;;;;;;42.53;25.40;;;1.50;77.60;;;;;;5070885;28;20036;-72
2021/03/08 04:19:00;;;;;;;47.22;26.10;;;1.60;77.50;;;;;;5072581;28;20070;-73
2021/03/08 04:21:27;;;;;;;49.15;27.00;;;1.60;77.40;;;;;;5069255;28;20043;-74
2021/03/08 04:23:55;;;;;;;46.08;26.08;;;1.60;77.30;;;;;;5071594;28;20452;-73
2021/03/08 04:26:22;;;;;;;42.72;25.55;;;1.60;77.20;;;;;;5075687;28;20044;-72
2021/03/08 04:28:49;;;;;;;45.53;26.58;;;1.70;77.30;;;;;;5060088;28;20025;-72
2021/03/08 04:31:16;;;;;;;44.58;26.73;;;1.70;77.20;;;;;;5053734;28;20116;-72
2021/03/08 04:33:44;;;;;;;48.88;26.42;;;1.70;77.20;;;;;;5066299;28;20036;-72
2021/03/08 04:36:12;;;;;;;44.05;24.50;;;1.70;77.20;;;;;;5057811;28;20041;-73
2021/03/08 04:38:41;;;;;;;44.30;25.73;;;1.70;77.30;;;;;;5060765;28;20111;-73
2021/03/08 04:41:09;;;;;;;48.53;27.05;;;1.70;77.30;;;;;;5062062;28;20041;-73
2021/03/08 04:43:37;;;;;;;43.58;26.08;;;1.80;77.10;;;;;;5060480;28;20037;-73
2021/03/08 04:46:03;;;;;;;43.08;25.50;;;1.80;77.10;;;;;;5052888;28;20060;-75
2021/03/08 04:48:29;;;;;;;44.25;26.00;;;1.80;77.10;;;;;;5061598;28;20118;-75
2021/03/08 04:50:56;;;;;;;45.65;26.58;;;1.80;77.10;;;;;;5066234;28;20029;-75
2021/03/08 04:53:22;;;;;;;46.97;26.35;;;1.90;77.10;;;;;;5067669;28;20052;-74
2021/03/08 04:55:49;;;;;;;44.55;25.92;;;1.90;77.10;;;;;;5056348;28;20064;-73
2021/03/08 04:58:15;;;;;;;44.65;25.67;;;1.90;77.10;;;;;;5060959;28;20044;-72
2021/03/08 05:00:41;;;;;;;46.55;26.33;;;1.90;77.00;;;;;;5060805;28;20139;-72
2021/03/08 05:03:06;;;;;;;43.38;25.73;;;1.90;77.00;;;;;;5071080;28;20686;-77
2021/03/08 05:05:33;;;;;;;45.85;25.25;;;1.90;77.10;;;;;;5066850;28;20037;-73
2021/03/08 05:08:04;;;;;;;44.05;25.77;;;2.00;77.10;;;;;;5070261;28;20235;-72
2021/03/08 05:10:30;;;;;;;46.35;25.80;;;2.10;77.00;;;;;;5057857;28;20132;-75
2021/03/08 05:12:58;;;;;;;45.47;27.23;;;2.10;77.00;;;;;;5063219;28;20028;-77
2021/03/08 05:15:25;;;;;;;40.28;24.73;;;2.10;76.90;;;;;;5053628;28;20545;-72
2021/03/08 05:17:54;;;;;;;41.20;24.70;;;2.10;76.90;;;;;;5056734;28;20041;-73
2021/03/08 05:20:21;;;;;;;42.28;24.52;;;2.10;76.90;;;;;;5055894;28;20120;-73
2021/03/08 05:22:47;;;;;;;45.63;27.05;;;2.10;76.80;;;;;;5056408;28;20043;-72
2021/03/08 05:25:14;;;;;;;43.95;25.80;;;2.10;76.80;;;;;;5063142;28;20029;-74
2021/03/08 05:27:40;;;;;;;44.95;27.17;;;2.10;76.90;;;;;;5066851;28;20040;-76
2021/03/08 05:30:07;;;;;;;44.38;25.83;;;2.10;77.00;;;;;;5062281;28;20045;-78
2021/03/08 05:32:52;;;;;;;42.05;25.52;;;2.10;77.00;;;;;;5061875;28;20116;-73
2021/03/08 05:35:19;;;;;;;45.78;26.15;;;2.10;77.20;;;;;;5064121;28;20043;-73
2021/03/08 05:37:46;;;;;;;47.63;26.67;;;2.10;77.20;;;;;;5065282;28;20039;-73
2021/03/08 05:40:43;;;;;;;42.17;25.15;;;2.10;77.00;;;;;;5054848;28;20495;-75
2021/03/08 05:43:12;;;;;;;41.97;25.88;;;2.10;77.00;;;;;;5054629;28;20037;-75
2021/03/08 05:45:56;;;;;;;44.00;26.45;;;2.10;77.10;;;;;;5053639;28;20039;-77
2021/03/08 05:48:47;;;;;;;45.85;25.92;;;2.10;77.10;;;;;;5056074;28;20412;-73
2021/03/08 05:51:43;;;;;;;47.40;27.40;;;2.20;77.20;;;;;;5054249;28;20087;-75
2021/03/08 05:54:47;;;;;;;45.38;26.70;;;2.20;77.00;;;;;;5057588;28;20499;-71
2021/03/08 05:57:13;;;;;;;47.15;26.55;;;2.10;77.00;;;;;;5054721;28;20045;-74
2021/03/08 06:00:00;;;;;;;44.88;24.58;;;2.20;77.10;;;;;;5060892;28;20059;-72
2021/03/08 06:03:13;;;;;;;43.25;25.80;;;2.20;77.20;;;;;;5053800;28;20269;-72
2021/03/08 06:05:57;;;;;;;47.42;27.88;;;2.20;77.30;;;;;;5060420;28;20384;-72
2021/03/08 06:08:40;;;;;;;48.77;28.00;;;2.20;77.40;;;;;;5060223;28;20112;-73
2021/03/08 06:11:10;;;;;;;48.40;28.15;;;2.20;77.40;;;;;;5062469;28;20048;-75
2021/03/08 06:13:44;;;;;;;45.13;27.35;;;2.20;77.50;;;;;;5061061;28;20033;-73
2021/03/08 06:16:16;;;;;;;48.65;27.63;;;2.20;77.50;;;;;;5055948;28;20059;-72
2021/03/08 06:18:46;;;;;;;43.17;26.88;;;2.20;77.60;;;;;;5051437;28;20104;-72
2021/03/08 06:21:14;;;;;;;47.70;28.13;;;2.20;77.50;;;;;;5059268;28;20045;-73
2021/03/08 06:23:42;;;;;;;45.42;27.00;;;2.20;77.40;;;;;;5050175;28;20104;-72
2021/03/08 06:26:09;;;;;;;48.40;29.73;;;2.20;77.50;;;;;;5056904;28;20041;-74
2021/03/08 06:28:36;;;;;;;48.00;28.20;;;2.20;77.50;;;;;;5060026;28;20453;-76
2021/03/08 06:31:01;;;;;;;47.50;29.98;;;2.20;77.50;;;;;;5056245;28;20055;-72
2021/03/08 06:33:28;;;;;;;49.35;30.55;;;2.30;77.60;;;;;;5066377;28;20423;-72
2021/03/08 06:35:56;;;;;;;55.47;33.08;;;2.30;77.60;;;;;;5063265;28;20094;-72
2021/03/08 06:38:24;;;;;;;52.42;34.85;;;2.30;77.50;;;;;;5052529;28;20116;-77
2021/03/08 06:40:49;;;;;;;56.63;33.22;;;2.30;77.40;;;;;;5064304;28;20032;-75
2021/03/08 06:43:15;;;;;;;50.50;31.45;;;2.30;77.40;;;;;;5057548;28;20028;-72
2021/03/08 06:45:41;;;;;;;49.30;30.23;;;2.40;77.30;;;;;;5061815;28;20037;-73
2021/03/08 06:48:07;;;;;;;51.88;30.75;;;2.40;77.30;;;;;;5052976;28;20595;-75
2021/03/08 06:50:33;;;;;;;46.58;28.25;;;2.40;77.10;;;;;;5055628;28;20112;-74
2021/03/08 06:52:59;;;;;;;58.30;34.35;;;2.40;76.90;;;;;;5062025;28;20114;-73
2021/03/08 06:55:24;;;;;;;55.25;34.05;;;2.50;76.70;;;;;;5049591;28;20040;-77
2021/03/08 06:57:50;;;;;;;61.30;36.67;;;2.50;76.70;;;;;;5053038;28;20032;-74
2021/03/08 07:00:16;;;;;;;58.35;36.10;;;2.50;76.70;;;;;;5058628;28;20068;-73
2021/03/08 07:02:46;;;;;;;60.55;36.35;;;2.60;76.80;;;;;;5060266;28;20049;-73
2021/03/08 07:05:32;;;;;;;57.05;34.58;;;2.60;76.50;;;;;;5056150;28;20372;-73
2021/03/08 07:08:00;;;;;;;58.67;34.72;;;2.60;76.40;;;;;;5052716;28;20132;-75
2021/03/08 07:10:36;;;;;;;59.22;32.90;;;2.70;76.20;;;;;;5051050;28;20132;-73
2021/03/08 07:13:04;;;;;;;58.38;33.15;;;2.70;76.10;;;;;;5050756;28;20384;-76
2021/03/08 07:15:30;;;;;;;58.78;30.35;;;2.80;76.00;;;;;;5054859;28;20032;-71
2021/03/08 07:17:56;;;;;;;60.08;32.95;;;2.80;76.00;;;;;;5056218;28;20131;-71
2021/03/08 07:20:26;;;;;;;59.15;33.47;;;2.90;76.00;;;;;;5058814;28;20041;-70
2021/03/08 07:22:53;;;;;;;63.97;36.33;;;3.00;75.50;;;;;;5055017;28;20115;-74
2021/03/08 07:25:28;;;;;;;61.80;35.03;;;3.10;75.40;;;;;;5056260;28;20112;-71
2021/03/08 07:27:56;;;;;;;62.20;35.40;;;3.10;75.40;;;;;;5063527;28;20060;-70
2021/03/08 07:30:24;;;;;;;57.67;32.90;;;3.10;75.10;;;;;;5051989;28;20525;-70
2021/03/08 07:32:52;;;;;;;59.67;34.67;;;3.20;75.10;;;;;;5054855;28;20148;-72
2021/03/08 07:35:31;;;;;;;57.05;33.75;;;3.30;75.00;;;;;;5063346;28;20040;-73
2021/03/08 07:37:56;;;;;;;61.63;32.38;;;3.30;74.70;;;;;;5060294;28;20049;-69
2021/03/08 07:40:26;;;;;;;55.10;31.38;;;3.40;74.70;;;;;;5051427;28;20040;-75
2021/03/08 07:42:52;;;;;;;58.05;33.90;;;3.50;74.60;;;;;;5053190;28;20036;-72
2021/03/08 07:45:20;;;;;;;58.47;34.97;;;3.60;74.20;;;;;;5060363;28;20028;-70
2021/03/08 07:47:46;;;;;;;49.55;29.98;;;3.60;74.20;;;;;;5058725;28;20048;-70
2021/03/08 07:50:28;;;;;;;56.00;33.35;;;3.70;74.10;;;;;;5056067;28;20509;-70
2021/03/08 07:52:55;;;;;;;61.75;35.30;;;3.80;73.80;;;;;;5054028;28;20112;-70
2021/03/08 07:55:35;;;;;;;57.03;34.38;;;3.80;73.50;;;;;;5057217;28;20098;-69
2021/03/08 07:58:04;;;;;;;62.03;34.42;;;3.90;73.50;;;;;;5060912;28;20131;-70
2021/03/08 08:00:31;;;;;;;57.38;35.00;;;4.00;73.20;;;;;;5053346;28;20137;-71
2021/03/08 08:03:00;;;;;;;59.13;34.47;;;4.10;73.20;;;;;;5065730;28;20037;-70
2021/03/08 08:05:26;;;;;;;54.05;31.77;;;4.10;73.00;;;;;;5064513;28;20029;-70
2021/03/08 08:07:55;;;;;;;59.78;33.38;;;4.20;72.70;;;;;;5058614;28;20070;-70
2021/03/08 08:10:21;;;;;;;54.20;32.20;;;4.20;72.70;;;;;;5066937;28;20047;-70
2021/03/08 08:12:48;;;;;;;57.88;30.98;;;4.30;72.50;;;;;;5057776;28;20492;-78
2021/03/08 08:15:18;;;;;;;51.85;31.23;;;4.40;72.40;;;;;;5062484;28;20037;-70
2021/03/08 08:17:46;;;;;;;52.20;31.65;;;4.40;72.20;;;;;;5061698;28;20040;-72
2021/03/08 08:20:14;;;;;;;53.47;30.83;;;4.50;72.10;;;;;;5067812;28;20480;-69
2021/03/08 08:23:03;;;;;;;54.67;30.23;;;4.60;72.00;;;;;;5067214;28;20029;-71
2021/03/08 08:25:31;;;;;;;53.25;31.15;;;4.70;71.90;;;;;;5041541;28;20056;-71
2021/03/08 08:27:57;;;;;;;53.60;31.17;;;4.80;71.70;;;;;;5044685;28;20037;-72
2021/03/08 08:30:25;;;;;;;51.90;30.73;;;4.90;71.20;;;;;;5043952;28;20486;-71
2021/03/08 08:32:58;;;;;;;52.80;32.72;;;5.00;70.90;;;;;;5048689;28;20033;-71
2021/03/08 08:35:28;;;;;;;52.25;30.05;;;5.10;71.00;;;;;;5041828;28;20033;-70
2021/03/08 08:38:09;;;;;;;61.85;31.83;;;5.10;70.00;;;;;;5042482;28;20040;-80
2021/03/08 08:40:36;;;;;;;50.35;30.02;;;5.10;69.40;;;;;;5054236;28;20123;-71
2021/03/08 08:43:14;;;;;;;53.95;29.90;;;5.10;69.40;;;;;;5062787;28;20109;-72
2021/03/08 08:45:42;;;;;;;48.28;29.85;;;5.20;69.00;;;;;;5063939;28;20037;-71
2021/03/08 08:48:08;;;;;;;56.75;31.95;;;5.30;68.20;;;;;;5071908;28;20423;-71
2021/03/08 08:50:49;;;;;;;60.90;32.97;;;5.20;68.30;;;;;;5072327;28;20033;-73
2021/03/08 08:53:44;;;;;;;53.72;30.67;;;5.20;69.10;;;;;;5064607;28;20025;-73
2021/03/08 08:56:10;;;;;;;58.25;32.30;;;5.30;69.60;;;;;;5064977;28;20060;-73
2021/03/08 08:58:48;;;;;;;56.38;31.42;;;5.60;69.80;;;;;;5062833;28;20518;-71
2021/03/08 09:01:22;;;;;;;63.60;31.73;;;5.70;69.70;;;;;;5064673;28;20032;-71
2021/03/08 09:03:53;;;;;;;50.38;32.20;;;5.80;69.20;;;;;;5067239;28;20029;-73
2021/03/08 09:06:48;;;;;;;52.17;32.20;;;5.90;68.70;;;;;;5063860;28;20123;-71
2021/03/08 09:09:17;;;;;;;53.50;32.95;;;6.00;68.20;;;;;;5069951;28;20151;-71
2021/03/08 09:11:53;;;;;;;52.50;33.50;;;6.00;68.00;;;;;;5059711;28;20235;-72
2021/03/08 09:14:23;;;;;;;54.13;33.53;;;6.10;67.50;;;;;;5065683;28;20093;-71
2021/03/08 09:16:50;;;;;;;53.38;33.30;;;6.30;67.00;;;;;;5053358;28;20061;-71
2021/03/08 09:19:22;;;;;;;57.63;34.28;;;6.70;65.70;;;;;;5060165;28;20036;-71
2021/03/08 09:21:48;;;;;;;57.33;35.42;;;7.30;65.80;;;;;;5056799;28;20036;-70
2021/03/08 09:24:31;;;;;;;53.25;34.83;;;7.40;62.30;;;;;;5060242;28;20040;-69
2021/03/08 09:26:57;;;;;;;53.10;35.40;;;7.60;62.40;;;;;;5064848;28;20021;-70
2021/03/08 09:29:23;;;;;;;51.30;34.28;;;7.60;62.10;;;;;;5061215;28;20053;-74
2021/03/08 09:31:56;;;;;;;55.95;33.92;;;7.80;60.70;;;;;;5062413;28;20043;-69
2021/03/08 09:34:21;;;;;;;54.70;34.95;;;7.90;62.10;;;;;;5057847;28;20111;-71
2021/03/08 09:36:49;;;;;;;47.55;32.58;;;7.80;60.50;;;;;;5062594;28;20178;-69
2021/03/08 09:39:15;;;;;;;48.38;32.63;;;7.80;59.20;;;;;;5061138;28;20037;-68
2021/03/08 09:41:40;;;;;;;49.78;33.80;;;7.50;59.30;;;;;;5062950;28;20464;-70
2021/03/08 09:44:06;;;;;;;52.53;33.33;;;7.60;60.20;;;;;;5055848;28;20029;-69
2021/03/08 09:46:32;;;;;;;38.38;26.70;;;7.40;59.40;;;;;;5053363;28;20072;-71
2021/03/08 09:49:04;;;;;;;44.30;29.73;;;7.60;56.80;;;;;;5055342;28;20025;-68
2021/03/08 09:51:29;;;;;;;46.35;29.83;;;7.60;56.20;;;;;;5060876;28;20044;-69
2021/03/08 09:53:55;;;;;;;45.30;29.70;;;7.60;56.80;;;;;;5057920;28;20032;-73
2021/03/08 09:56:23;;;;;;;47.90;32.17;;;7.80;56.60;;;;;;5060153;28;20040;-69
2021/03/08 09:59:04;;;;;;;48.00;31.08;;;7.80;55.60;;;;;;5052692;28;20386;-70
2021/03/08 10:01:31;;;;;;;46.60;30.65;;;8.00;56.20;;;;;;5061106;28;20067;-67
2021/03/08 10:03:57;;;;;;;43.78;30.13;;;8.10;55.60;;;;;;5058375;28;20425;-69
2021/03/08 10:06:31;;;;;;;44.33;30.50;;;8.10;55.50;;;;;;5060861;28;20036;-68
2021/03/08 10:08:58;;;;;;;44.45;30.48;;;8.10;54.80;;;;;;5066815;28;20471;-70
2021/03/08 10:11:29;;;;;;;50.22;31.75;;;8.10;55.60;;;;;;5056391;28;20044;-68
2021/03/08 10:13:56;;;;;;;43.58;29.60;;;8.10;55.60;;;;;;5056299;28;20045;-69
2021/03/08 10:16:23;;;;;;;43.20;28.38;;;8.00;53.80;;;;;;5053874;28;21492;-68
2021/03/08 10:18:49;;;;;;;43.83;28.00;;;7.90;54.80;;;;;;5054072;28;20036;-69
2021/03/08 10:21:15;;;;;;;39.30;26.85;;;7.90;54.40;;;;;;5055999;28;20024;-69
2021/03/08 10:23:41;;;;;;;43.33;28.85;;;7.90;54.20;;;;;;5061498;28;20032;-69
2021/03/08 10:26:12;;;;;;;47.88;28.92;;;7.90;55.40;;;;;;5062063;28;20044;-69
2021/03/08 10:28:43;;;;;;;44.60;28.42;;;8.20;54.00;;;;;;5060209;28;20029;-69
2021/03/08 10:31:18;;;;;;;44.30;29.80;;;8.30;54.20;;;;;;5049890;28;20064;-67
2021/03/08 10:33:45;;;;;;;;;;;8.10;54.40;;;;;;5063622;28;20031;-67
2021/03/08 10:36:17;;;;;;;43.90;28.67;;;8.10;54.80;;;;;;5059070;28;20014;-71
2021/03/08 10:38:43;;;;;;;39.28;26.92;;;8.50;53.10;;;;;;5067010;28;20111;-68
2021/03/08 10:41:09;;;;;;;41.38;27.90;;;8.60;53.10;;;;;;5056180;28;20525;-70
2021/03/08 10:43:35;;;;;;;40.20;26.88;;;8.60;53.00;;;;;;5053997;28;20109;-69
2021/03/08 10:46:02;;;;;;;49.03;29.15;;;8.70;53.10;;;;;;5051505;28;20025;-72
2021/03/08 10:48:28;;;;;;;39.28;27.33;;;8.60;53.60;;;;;;5060141;28;20050;-68
2021/03/08 10:50:56;;;;;;;42.50;27.88;;;8.60;51.60;;;;;;5061116;28;20080;-68
2021/03/08 10:53:24;;;;;;;40.58;26.85;;;8.80;52.10;;;;;;5057393;28;20036;-69
2021/03/08 10:55:51;;;;;;;40.38;26.70;;;8.80;52.60;;;;;;5060690;28;20056;-68
2021/03/08 10:58:31;;;;;;;47.55;28.58;;;8.70;52.80;;;;;;5060508;28;20539;-68
2021/03/08 11:01:08;;;;;;;39.05;25.73;;;8.60;51.30;;;;;;5057799;28;20474;-68
2021/03/08 11:03:35;;;;;;;40.53;26.80;;;8.60;51.30;;;;;;5052886;28;20033;-70
2021/03/08 11:06:08;;;;;;;40.80;27.60;;;8.40;52.40;;;;;;5056477;28;20067;-69
2021/03/08 11:08:39;;;;;;;38.97;26.75;;;8.60;53.00;;;;;;5056787;28;20120;-69
2021/03/08 11:11:20;;;;;;;39.40;27.02;;;8.60;52.00;;;;;;5062494;28;20511;-69
2021/03/08 11:13:46;;;;;;;43.78;28.00;;;8.90;51.80;;;;;;5049595;28;20099;-68
2021/03/08 11:16:14;;;;;;;43.08;27.30;;;9.10;50.90;;;;;;5060415;28;20357;-72
2021/03/08 11:18:40;;;;;;;37.65;25.67;;;9.20;51.90;;;;;;5058027;28;20111;-69
2021/03/08 11:21:26;;;;;;;39.28;26.25;;;9.10;51.40;;;;;;5058446;28;20033;-71
2021/03/08 11:23:53;;;;;;;38.20;26.60;;;9.20;51.00;;;;;;5056727;28;20032;-70
2021/03/08 11:26:21;;;;;;;41.15;26.10;;;9.40;51.40;;;;;;5064803;28;20043;-71
2021/03/08 11:28:46;;;;;;;38.13;25.58;;;9.40;50.70;;;;;;5057546;28;20040;-69
2021/03/08 11:31:23;;;;;;;44.67;27.15;;;9.10;50.10;;;;;;5061344;28;20443;-70
2021/03/08 11:33:50;;;;;;;42.05;28.05;;;9.20;51.10;;;;;;5054883;28;20037;-68
2021/03/08 11:36:28;;;;;;;40.10;27.60;;;9.00;51.40;;;;;;5047716;28;20049;-68
2021/03/08 11:38:53;;;;;;;40.92;28.48;;;8.80;52.00;;;;;;5059300;28;20040;-68
2021/03/08 11:41:19;;;;;;;40.67;28.13;;;8.90;52.50;;;;;;5050077;28;20459;-70
2021/03/08 11:43:45;;;;;;;40.38;25.35;;;9.00;52.70;;;;;;5050813;28;20064;-69
2021/03/08 11:46:10;;;;;;;36.25;24.13;;;9.10;51.70;;;;;;5046377;28;20115;-69
2021/03/08 11:48:36;;;;;;;43.38;27.75;;;9.00;51.10;;;;;;5059112;28;20572;-72
2021/03/08 11:51:02;;;;;;;40.75;27.45;;;8.80;52.00;;;;;;5048235;28;20068;-68
2021/03/08 11:53:27;;;;;;;42.72;27.85;;;8.90;52.60;;;;;;5052138;28;20044;-68
2021/03/08 11:55:53;;;;;;;42.08;26.45;;;9.00;52.60;;;;;;5053863;28;20037;-69
2021/03/08 11:58:20;;;;;;;43.08;26.58;;;9.00;52.90;;;;;;5050836;28;20036;-69
2021/03/08 12:00:45;;;;;;;41.67;26.73;;;9.00;52.80;;;;;;5053203;28;20024;-70
2021/03/08 12:03:11;;;;;;;38.20;25.95;;;9.10;51.90;;;;;;5051013;28;20045;-68
2021/03/08 12:05:36;;;;;;;38.22;25.80;;;9.20;50.90;;;;;;5054072;28;20051;-70
2021/03/08 12:08:02;;;;;;;37.60;25.58;;;9.10;51.30;;;;;;5056650;28;20082;-69
2021/03/08 12:10:28;;;;;;;39.38;26.67;;;9.40;50.70;;;;;;5059662;28;20082;-69
2021/03/08 12:12:53;;;;;;;37.17;25.17;;;9.30;50.20;;;;;;5064184;28;20803;-70
2021/03/08 12:15:19;;;;;;;37.65;25.83;;;9.20;50.90;;;;;;5053060;28;20044;-69
2021/03/08 12:17:44;;;;;;;35.95;24.88;;;9.30;50.30;;;;;;5067838;28;20056;-71
2021/03/08 12:20:11;;;;;;;43.35;26.73;;;9.40;49.80;;;;;;5064862;28;20035;-68
2021/03/08 12:22:42;;;;;;;40.60;26.48;;;9.50;50.70;;;;;;5059993;28;20380;-69
2021/03/08 12:25:08;;;;;;;39.20;26.20;;;9.60;50.30;;;;;;5057620;28;20075;-70
2021/03/08 12:27:34;;;;;;;41.40;25.42;;;9.70;51.40;;;;;;5058372;28;20052;-70
2021/03/08 12:30:00;;;;;;;36.35;25.73;;;10.00;50.40;;;;;;5065562;28;20037;-68
2021/03/08 12:32:26;;;;;;;44.22;27.48;;;10.10;49.60;;;;;;5062403;28;20032;-66
2021/03/08 12:34:51;;;;;;;39.83;26.98;;;10.40;49.30;;;;;;5062762;28;20533;-66
2021/03/08 12:37:17;;;;;;;39.90;27.45;;;10.00;48.50;;;;;;5050626;28;20037;-68
2021/03/08 12:39:43;;;;;;;37.67;26.10;;;10.10;48.80;;;;;;5049312;28;20112;-67
2021/03/08 12:42:08;;;;;;;36.70;26.08;;;10.40;49.20;;;;;;5046288;28;20759;-67
2021/03/08 12:44:34;;;;;;;42.53;27.80;;;10.40;48.40;;;;;;5031755;28;20029;-67
2021/03/08 12:47:00;;;;;;;38.25;25.80;;;10.30;49.60;;;;;;5031572;28;20492;-68